Chetco River@Brookings

Start Stop
DateFlow
CFS
Gauge
Feet
DateFlow
CFS
Gauge
Feet
09/22/2019 16:30292-0.43
09/22/2019 15:30289-0.44
09/22/2019 14:30289-0.44
09/22/2019 13:30289-0.44
09/22/2019 12:30289-0.44
09/22/2019 11:30292-0.43
09/22/2019 10:30295-0.42
09/22/2019 09:30292-0.43
09/22/2019 08:30295-0.42
09/22/2019 07:30299-0.41
09/22/2019 06:30299-0.41
09/22/2019 05:30302-0.4
09/22/2019 04:30305-0.39
09/22/2019 03:30308-0.38
09/22/2019 02:30308-0.38
09/22/2019 01:30314-0.36
09/22/2019 00:30318-0.35
09/21/2019 23:30318-0.35
09/21/2019 22:30324-0.33
09/21/2019 21:30328-0.32
09/21/2019 20:30331-0.31
09/21/2019 19:30334-0.3
09/21/2019 18:30338-0.29
09/21/2019 17:30341-0.28
09/21/2019 16:30344-0.27
09/21/2019 15:30348-0.26
09/21/2019 14:30351-0.25
09/21/2019 13:30358-0.23
09/21/2019 12:30362-0.22
09/21/2019 11:30365-0.21
09/21/2019 10:30372-0.19
09/21/2019 09:30372-0.19
09/21/2019 08:30376-0.18
09/21/2019 07:30383-0.16
09/21/2019 06:30387-0.15
09/21/2019 05:30390-0.14
09/21/2019 04:30398-0.12
09/21/2019 03:30401-0.11
09/21/2019 02:30409-0.09
09/21/2019 01:30413-0.08
09/21/2019 00:30424-0.05
09/20/2019 23:30432-0.03
09/20/2019 22:30435-0.02
09/20/2019 21:304430
09/20/2019 20:304510.02
09/20/2019 19:304590.04
09/20/2019 18:304670.06
09/20/2019 17:304790.09
09/20/2019 16:304880.11
09/20/2019 15:304960.13
09/20/2019 14:305040.15
09/20/2019 13:305170.18
09/20/2019 12:305300.21
09/20/2019 11:305380.23
09/20/2019 10:305520.26
09/20/2019 09:305610.28
09/20/2019 08:305740.31
09/20/2019 07:305880.34
09/20/2019 06:306060.38
09/20/2019 05:306250.42
09/20/2019 04:306300.43
09/20/2019 03:306490.47
09/20/2019 02:306680.51
09/20/2019 01:306880.55
09/20/2019 00:307080.59
09/19/2019 23:307290.63
09/19/2019 22:307490.67
09/19/2019 21:307760.72
09/19/2019 20:307970.76
09/19/2019 19:308300.82
09/19/2019 18:308520.86
09/19/2019 17:308810.91
09/19/2019 16:309210.98
09/19/2019 15:309511.03
09/19/2019 14:309931.1
09/19/2019 13:3010301.16
09/19/2019 12:3010801.24
09/19/2019 11:3011201.3
09/19/2019 10:3011601.36
09/19/2019 09:3012201.45
09/19/2019 08:3012801.53
09/19/2019 07:3013201.6
09/19/2019 06:3013801.67
09/19/2019 05:3014101.72
09/19/2019 04:3014401.76
09/19/2019 03:3014601.78
09/19/2019 02:3014501.77
09/19/2019 01:3014501.77
09/19/2019 00:3014601.79
09/18/2019 23:3014601.79
09/18/2019 22:3014301.75
09/18/2019 21:3014201.73
09/18/2019 20:3014101.72
09/18/2019 19:3014301.74
09/18/2019 18:3014001.7
09/18/2019 17:3013601.65
09/18/2019 16:3013001.56
09/18/2019 15:3012501.49
09/18/2019 14:3012101.44
09/18/2019 13:3011901.41
09/18/2019 12:3012001.42
09/18/2019 11:3011701.37
09/18/2019 10:3011101.29
09/18/2019 09:3010701.23
09/18/2019 08:3010701.22
09/18/2019 07:3010901.26
09/18/2019 06:3011401.33
09/18/2019 05:3011501.34
09/18/2019 04:3011701.38
09/18/2019 03:3011601.36
09/18/2019 02:3011901.4
09/18/2019 01:3012501.49
09/18/2019 00:3012901.55
09/17/2019 23:3013201.59
09/17/2019 22:3012601.51
09/17/2019 21:3011001.27
09/17/2019 20:309511.03
09/17/2019 19:307920.75
09/17/2019 18:305740.31
09/17/2019 17:30439-0.01
09/17/2019 16:30338-0.29
09/17/2019 15:30274-0.49
09/17/2019 14:30250-0.57
09/17/2019 13:30234-0.63
09/17/2019 12:30228-0.65
09/17/2019 10:30228-0.65
09/17/2019 09:30231-0.64
09/17/2019 08:30234-0.63
09/17/2019 07:30239-0.61
09/17/2019 06:30248-0.58
09/17/2019 05:30250-0.57
09/17/2019 04:30256-0.55
09/17/2019 03:30256-0.55
09/17/2019 02:30253-0.56
09/17/2019 01:30248-0.58
09/17/2019 00:30236-0.62
09/16/2019 23:30228-0.65
09/16/2019 22:30220-0.68
09/16/2019 21:30217-0.69
09/16/2019 20:30215-0.7
09/16/2019 19:30210-0.72
09/16/2019 18:30210-0.72
09/16/2019 17:30207-0.73
09/16/2019 16:30207-0.73
09/16/2019 15:30210-0.72
09/16/2019 14:30212-0.71
09/15/2019 06:3080-1.36
09/14/2019 22:3080-1.36
09/14/2019 21:3081-1.35
09/14/2019 14:3081-1.35
09/14/2019 13:3083-1.34
09/14/2019 07:3083-1.34
09/14/2019 06:3085-1.33
09/13/2019 23:3085-1.33
09/13/2019 22:3086-1.32
09/13/2019 21:3085-1.33
09/13/2019 20:3086-1.32
09/13/2019 19:3086-1.32
09/13/2019 18:3088-1.31
09/13/2019 14:3088-1.31
09/13/2019 13:3089-1.3
09/13/2019 12:3089-1.3
09/13/2019 11:3091-1.29
09/13/2019 06:3091-1.29
09/13/2019 05:3092-1.28
09/13/2019 02:3092-1.28
09/13/2019 01:3094-1.27
09/12/2019 21:3094-1.27
09/12/2019 20:3096-1.26
09/12/2019 19:3096-1.26
09/12/2019 18:3097-1.25
09/12/2019 14:3097-1.25
09/12/2019 13:3099-1.24
09/12/2019 12:30101-1.23
09/12/2019 11:30101-1.23
09/12/2019 10:30103-1.22
09/12/2019 08:30103-1.22
09/12/2019 07:30105-1.21
09/12/2019 06:30105-1.21
09/12/2019 05:30106-1.2
09/12/2019 04:30106-1.2
09/12/2019 03:30108-1.19
09/12/2019 02:30110-1.18
09/12/2019 01:30110-1.18
09/12/2019 00:30112-1.17
09/11/2019 23:30114-1.16
09/11/2019 22:30115-1.15
09/11/2019 21:30117-1.14
09/11/2019 20:30117-1.14
09/11/2019 19:30119-1.13
09/11/2019 18:30121-1.12
09/11/2019 17:30121-1.12
09/11/2019 16:30123-1.11
09/11/2019 14:30123-1.11
09/11/2019 13:30125-1.1
09/11/2019 10:30125-1.1
09/11/2019 09:30123-1.11
09/11/2019 08:30121-1.12
09/11/2019 07:30123-1.11
09/11/2019 06:30125-1.1
09/11/2019 05:30127-1.09
09/11/2019 04:30128-1.08
09/11/2019 03:30130-1.07
09/11/2019 02:30132-1.06
09/11/2019 01:30134-1.05
09/11/2019 00:30138-1.03
09/10/2019 23:30140-1.02
09/10/2019 22:30142-1.01
09/10/2019 21:30144-1
09/10/2019 20:30149-0.98
09/10/2019 19:30151-0.97
09/10/2019 18:30153-0.96
09/10/2019 17:30157-0.94
09/10/2019 16:30159-0.93
09/10/2019 15:30164-0.91
09/10/2019 14:30161-0.92
09/10/2019 13:30161-0.92
09/10/2019 12:30164-0.91
09/10/2019 11:30166-0.9
09/10/2019 10:30170-0.88
09/10/2019 08:30175-0.86
09/10/2019 07:30175-0.86
09/10/2019 06:30177-0.85
09/10/2019 05:30173-0.87
09/10/2019 04:30170-0.88
09/10/2019 03:30164-0.91
09/10/2019 02:30149-0.98
09/10/2019 01:30136-1.04
09/10/2019 00:30127-1.09
09/09/2019 23:30123-1.11
09/09/2019 22:30119-1.13
09/09/2019 21:30115-1.15
09/09/2019 20:30112-1.17
09/09/2019 19:30108-1.19
09/09/2019 18:3099-1.24
09/09/2019 17:3094-1.27
09/09/2019 16:3092-1.28
09/09/2019 15:3091-1.29
09/09/2019 14:3089-1.3
09/09/2019 13:3088-1.31
09/09/2019 12:3086-1.32
09/09/2019 11:3085-1.33
09/09/2019 10:3085-1.33
09/09/2019 09:3083-1.34
09/09/2019 08:3081-1.35
09/09/2019 05:3081-1.35
09/09/2019 04:3080-1.36
09/09/2019 03:3080-1.36
09/09/2019 02:3078-1.37
09/09/2019 01:3080-1.36
09/08/2019 20:3080-1.36
09/08/2019 19:3078-1.37
09/08/2019 18:3078-1.37
09/08/2019 17:3077-1.38
09/08/2019 16:3077-1.38
09/08/2019 15:3076-1.39
09/08/2019 08:3076-1.39
09/08/2019 07:3074-1.4
09/08/2019 03:3074-1.4
09/08/2019 02:3072-1.41
09/07/2019 20:3072-1.41
09/07/2019 19:3071-1.42
09/07/2019 18:3072-1.41
09/07/2019 16:3072-1.41
09/07/2019 15:3071-1.42
09/07/2019 14:3072-1.41
09/07/2019 09:3072-1.41
09/07/2019 08:3071-1.42
09/07/2019 07:3072-1.41
09/06/2019 18:3072-1.41
09/06/2019 17:3074-1.4
09/06/2019 13:3074-1.4
09/06/2019 12:3076-1.39
09/06/2019 11:3076-1.39
09/06/2019 10:3074-1.4
09/05/2019 15:3074-1.4
09/05/2019 14:3076-1.39
09/05/2019 13:3074-1.4
09/05/2019 12:3074-1.4
09/05/2019 11:3076-1.39
09/05/2019 02:3076-1.39
09/05/2019 01:3074-1.4
09/05/2019 00:3076-1.39
09/04/2019 22:3076-1.39
09/04/2019 21:3074-1.4
09/04/2019 20:3074-1.4
09/04/2019 19:3076-1.39
09/04/2019 18:3074-1.4
09/04/2019 17:3076-1.39
09/04/2019 16:3076-1.39
09/04/2019 15:3074-1.4
09/04/2019 14:3076-1.39
09/04/2019 12:3076-1.39
09/04/2019 11:3077-1.38
09/04/2019 10:3076-1.39
09/03/2019 22:3076-1.39
09/03/2019 21:3074-1.4
09/03/2019 20:3074-1.4
09/03/2019 19:3076-1.39
09/03/2019 18:3076-1.39
09/03/2019 17:3074-1.4
09/03/2019 16:3074-1.4
09/03/2019 15:3076-1.39
09/03/2019 07:3076-1.39
09/03/2019 06:3077-1.38
09/03/2019 05:3076-1.39
09/02/2019 14:3076-1.39
09/02/2019 13:3077-1.38
09/01/2019 20:3077-1.38
09/01/2019 19:3078-1.37
09/01/2019 18:3077-1.38
09/01/2019 15:3077-1.38
09/01/2019 14:3078-1.37
09/01/2019 10:3078-1.37
09/01/2019 09:3080-1.36
09/01/2019 08:3078-1.37
09/01/2019 01:3078-1.37
09/01/2019 00:3077-1.38
08/31/2019 23:3078-1.37
08/31/2019 22:3077-1.38
08/31/2019 21:3078-1.37
08/31/2019 15:3078-1.37
08/31/2019 14:3080-1.36
08/31/2019 13:3078-1.37
08/31/2019 12:3080-1.36
08/30/2019 13:3080-1.36
08/30/2019 12:3081-1.35
08/30/2019 09:3081-1.35
08/30/2019 08:3080-1.36
08/30/2019 06:3080-1.36
08/30/2019 05:3078-1.37
08/30/2019 04:3080-1.36
08/30/2019 03:3078-1.37
08/29/2019 09:3078-1.37
08/29/2019 08:3080-1.36
08/29/2019 07:3078-1.37
08/28/2019 21:3078-1.37
08/28/2019 20:3077-1.38
08/28/2019 19:3078-1.37
08/28/2019 11:3078-1.37
08/28/2019 10:3080-1.36
08/28/2019 09:3080-1.36
08/28/2019 08:3078-1.37
08/28/2019 04:3078-1.37
08/28/2019 03:3080-1.36
08/28/2019 01:3080-1.36
08/28/2019 00:3078-1.37
08/27/2019 21:3078-1.37
08/27/2019 20:3080-1.36
08/27/2019 19:3080-1.36
08/27/2019 18:3078-1.37
08/27/2019 17:3080-1.36
08/27/2019 11:3080-1.36
08/27/2019 10:3081-1.35
08/27/2019 09:3081-1.35
08/27/2019 08:3080-1.36
08/27/2019 07:3081-1.35
08/26/2019 20:3081-1.35
08/26/2019 19:3083-1.34
08/26/2019 15:3083-1.34
08/26/2019 14:3085-1.33
08/26/2019 13:3085-1.33
08/26/2019 12:3086-1.32
08/26/2019 11:3085-1.33
08/25/2019 21:3085-1.33
08/25/2019 20:3086-1.32
08/25/2019 16:3086-1.32
08/25/2019 15:3088-1.31
08/25/2019 14:3088-1.31
08/25/2019 13:3086-1.32
08/25/2019 12:3088-1.31
08/25/2019 11:3088-1.31
08/25/2019 10:3089-1.3
08/24/2019 21:3089-1.3
08/24/2019 20:3091-1.29
08/24/2019 19:3089-1.3
08/24/2019 18:3091-1.29
08/24/2019 14:3091-1.29
08/24/2019 13:3092-1.28
08/24/2019 11:3092-1.28
08/24/2019 10:3094-1.27
08/24/2019 06:3094-1.27
08/24/2019 05:3096-1.26
08/24/2019 04:3096-1.26
08/24/2019 03:3097-1.25
08/23/2019 22:3097-1.25
08/23/2019 21:3099-1.24
08/23/2019 20:3099-1.24
08/23/2019 19:30101-1.23
08/23/2019 18:30101-1.23

Start Stop